CAL933 RCKH-VHHH
Flight info
| Callsign | CAL933 |
|---|---|
| Flight time | N/A |
| Altitude | 36000 |
| Route | PARAS1B PARAS T7 WP521 G581 ELATO V522 ABBEY |
| Aircraft | B38M/M-SDE1FGHILORVWXY/HB1 |
Departure
| Time | 2026-04-26 10:13 |
|---|---|
| Airport | Kaohsiung International Airport (RCKH) |
Arrival
| Time | N/A |
|---|---|
| Airport | Hong Kong International Airport (VHHH) |
| Time | Latitude | Longitude | Altitude | Speed | Heading |
|---|---|---|---|---|---|
| 2026-04-26 09:48 | 22.57271 | 120.33966 | 41 ft | 0 kts | 270° |
| 2026-04-26 10:02 | 22.57270 | 120.33992 | 41 ft | 4 kts | 271° |
| 2026-04-26 10:03 | 22.57270 | 120.34018 | 41 ft | 4 kts | 266° |
| 2026-04-26 10:03 | 22.57275 | 120.34043 | 40 ft | 4 kts | 233° |
| 2026-04-26 10:03 | 22.57287 | 120.34050 | 41 ft | 3 kts | 181° |
| 2026-04-26 10:03 | 22.57314 | 120.34051 | 38 ft | 4 kts | 181° |
| 2026-04-26 10:04 | 22.57341 | 120.34052 | 41 ft | 4 kts | 181° |
| 2026-04-26 10:04 | 22.57367 | 120.34053 | 39 ft | 4 kts | 185° |
| 2026-04-26 10:04 | 22.57392 | 120.34060 | 41 ft | 4 kts | 216° |
| 2026-04-26 10:04 | 22.57407 | 120.34081 | 41 ft | 4 kts | 256° |
| 2026-04-26 10:05 | 22.57408 | 120.34108 | 41 ft | 4 kts | 272° |
| 2026-04-26 10:05 | 22.57407 | 120.34137 | 41 ft | 4 kts | 272° |
| 2026-04-26 10:05 | 22.57406 | 120.34167 | 41 ft | 4 kts | 272° |
| 2026-04-26 10:05 | 22.57405 | 120.34189 | 41 ft | 0 kts | 272° |
| 2026-04-26 10:08 | 22.57406 | 120.34185 | 41 ft | 2 kts | 272° |
| 2026-04-26 10:09 | 22.57429 | 120.34131 | 40 ft | 14 kts | 330° |
| 2026-04-26 10:09 | 22.57541 | 120.34135 | 41 ft | 17 kts | 36° |
| 2026-04-26 10:09 | 22.57563 | 120.34260 | 41 ft | 19 kts | 93° |
| 2026-04-26 10:09 | 22.57558 | 120.34409 | 41 ft | 21 kts | 92° |
| 2026-04-26 10:10 | 22.57552 | 120.34574 | 41 ft | 23 kts | 92° |
| 2026-04-26 10:10 | 22.57547 | 120.34759 | 41 ft | 26 kts | 92° |
| 2026-04-26 10:10 | 22.57541 | 120.34959 | 40 ft | 25 kts | 92° |
| 2026-04-26 10:10 | 22.57535 | 120.35145 | 40 ft | 26 kts | 92° |
| 2026-04-26 10:11 | 22.57530 | 120.35334 | 40 ft | 26 kts | 92° |
| 2026-04-26 10:11 | 22.57524 | 120.35533 | 40 ft | 26 kts | 91° |
| 2026-04-26 10:11 | 22.57517 | 120.35737 | 40 ft | 27 kts | 92° |
| 2026-04-26 10:11 | 22.57511 | 120.35936 | 41 ft | 27 kts | 92° |
| 2026-04-26 10:12 | 22.57506 | 120.36110 | 41 ft | 25 kts | 91° |
| 2026-04-26 10:12 | 22.57500 | 120.36293 | 41 ft | 24 kts | 92° |
| 2026-04-26 10:12 | 22.57550 | 120.36411 | 41 ft | 17 kts | 9° |
| 2026-04-26 10:12 | 22.57656 | 120.36372 | 42 ft | 18 kts | 298° |
| 2026-04-26 10:13 | 22.57678 | 120.35986 | 41 ft | 96 kts | 272° |
| 2026-04-26 10:13 | 22.57708 | 120.34970 | 66 ft | 168 kts | 272° |
| 2026-04-26 10:13 | 22.57746 | 120.33542 | 474 ft | 215 kts | 272° |
| 2026-04-26 10:13 | 22.57793 | 120.31753 | 993 ft | 259 kts | 272° |
| 2026-04-26 10:14 | 22.57854 | 120.29630 | 1383 ft | 301 kts | 272° |
| 2026-04-26 10:14 | 22.57910 | 120.27498 | 1792 ft | 266 kts | 272° |
| 2026-04-26 10:14 | 22.57859 | 120.25579 | 2135 ft | 252 kts | 257° |
| 2026-04-26 10:14 | 22.57051 | 120.23968 | 3453 ft | 238 kts | 231° |
| 2026-04-26 10:15 | 22.56004 | 120.22651 | 5100 ft | 225 kts | 231° |
| 2026-04-26 10:15 | 22.54958 | 120.21353 | 6240 ft | 237 kts | 229° |
| 2026-04-26 10:15 | 22.53807 | 120.19977 | 7097 ft | 256 kts | 229° |
| 2026-04-26 10:15 | 22.52542 | 120.18498 | 7823 ft | 279 kts | 228° |
| 2026-04-26 10:16 | 22.51200 | 120.16950 | 8910 ft | 286 kts | 229° |
| 2026-04-26 10:16 | 22.49823 | 120.15371 | 10020 ft | 290 kts | 229° |
| 2026-04-26 10:16 | 22.48414 | 120.13763 | 11006 ft | 301 kts | 229° |
| 2026-04-26 10:16 | 22.46949 | 120.12097 | 11902 ft | 311 kts | 229° |
| 2026-04-26 10:17 | 22.45447 | 120.10391 | 12870 ft | 316 kts | 229° |
| 2026-04-26 10:17 | 22.43917 | 120.08655 | 13813 ft | 321 kts | 229° |
| 2026-04-26 10:17 | 22.42364 | 120.06887 | 14693 ft | 327 kts | 230° |
| 2026-04-26 10:17 | 22.41020 | 120.04898 | 15556 ft | 330 kts | 239° |
| 2026-04-26 10:18 | 22.39716 | 120.02829 | 16381 ft | 336 kts | 238° |
| 2026-04-26 10:18 | 22.38368 | 120.00735 | 17186 ft | 341 kts | 237° |
| 2026-04-26 10:18 | 22.37010 | 119.98649 | 17936 ft | 347 kts | 237° |
| 2026-04-26 10:18 | 22.35606 | 119.96506 | 18684 ft | 352 kts | 237° |
| 2026-04-26 10:19 | 22.34184 | 119.94344 | 19460 ft | 354 kts | 237° |
| 2026-04-26 10:19 | 22.32751 | 119.92168 | 20231 ft | 357 kts | 237° |
| 2026-04-26 10:19 | 22.31308 | 119.89980 | 20982 ft | 359 kts | 237° |
| 2026-04-26 10:19 | 22.29856 | 119.87780 | 21696 ft | 361 kts | 238° |
| 2026-04-26 10:20 | 22.28376 | 119.85537 | 22409 ft | 363 kts | 238° |
| 2026-04-26 10:20 | 22.27404 | 119.84065 | 22844 ft | 364 kts | 238° |
| 2026-04-26 10:20 | 22.25449 | 119.81106 | 23696 ft | 367 kts | 238° |
| 2026-04-26 10:20 | 22.23962 | 119.78858 | 24315 ft | 369 kts | 238° |
| 2026-04-26 10:21 | 22.22467 | 119.76594 | 24912 ft | 372 kts | 238° |
| 2026-04-26 10:21 | 22.21117 | 119.74221 | 25442 ft | 370 kts | 251° |
| 2026-04-26 10:21 | 22.20417 | 119.71565 | 25947 ft | 370 kts | 259° |
| 2026-04-26 10:21 | 22.19787 | 119.68851 | 26421 ft | 374 kts | 259° |
| 2026-04-26 10:22 | 22.19167 | 119.66111 | 26927 ft | 377 kts | 259° |
| 2026-04-26 10:22 | 22.18554 | 119.63345 | 27413 ft | 380 kts | 259° |
| 2026-04-26 10:22 | 22.17946 | 119.60563 | 27879 ft | 383 kts | 259° |
| 2026-04-26 10:22 | 22.17334 | 119.57750 | 28329 ft | 386 kts | 260° |
| 2026-04-26 10:23 | 22.16719 | 119.54920 | 28774 ft | 389 kts | 260° |